Latest Weather Observations for Camden

IDN60801

Issued at 4:22 am EDT Monday 21 January 2019 (issued every 10 minutes, with the page automatically refreshed every 10 minutes)

About weather observations | Map of weather stations | Latest weather observations for NSW | Other Formats
Station Details ID: 068192 Name: CAMDEN AIRPORT AWS Lat: -34.04 Lon: 150.69 Height: 73.9 m
Data from the previous 72 hours. | See also: Recent months at Camden
Date/Time
EDT
Temp
°C
App
Temp
°C
Dew
Point
°C
Rel
Hum
%
Delta-T
°C
Wind Press
QNH
hPa
Press
MSL
hPa
Rain since
9am
mm
Dir  Spd
km/h
Gust
km/h
Spd
kts
Gust
kts
21/04:13am 21.0 23.9 21.0 100 0.0 ENE 7 11 4 6 1018.5 1018.1 2.0
21/04:00am 21.0 23.9 21.0 100 0.0 ESE 7 9 4 5 1018.7 1018.3 2.0
21/03:30am 21.0 25.1 20.8 99 0.1 CALM 0 0 0 0 1019.3 1019.0 2.0
21/03:20am 21.0 24.8 21.0 100 0.0 NE 2 6 1 3 1019.6 1019.3 2.0
21/03:16am 21.0 24.4 21.0 100 0.0 NE 4 7 2 4 1019.7 1019.4 2.0
21/03:00am 21.1 24.0 21.1 100 0.0 NNE 7 11 4 6 1019.7 1019.4 1.8
21/02:30am 21.1 24.0 21.1 100 0.0 NW 7 9 4 5 1020.5 1020.2 1.6
21/02:00am 21.2 24.2 21.2 100 0.0 W 7 9 4 5 1020.6 1020.3 1.2
21/01:30am 21.2 24.3 21.0 99 0.1 WSW 6 6 3 3 1020.3 1020.0 0.8
21/01:00am 21.2 25.4 21.0 99 0.1 CALM 0 0 0 0 1020.3 1020.0 0.8
21/12:30am 21.2 24.3 21.0 99 0.1 W 6 7 3 4 1020.3 1020.0 0.4
21/12:00am 21.2 24.9 20.7 97 0.3 SW 2 9 1 5 1020.3 1020.0 0.0
 
Date/Time
EDT
Temp
°C
App
Temp
°C
Dew
Point
°C
Rel
Hum
%
Delta-T
°C
Wind Press
QNH
hPa
Press
MSL
hPa
Rain since
9am
mm
Dir  Spd
km/h
Gust
km/h
Spd
kts
Gust
kts
20/11:51pm 21.2 24.8 20.5 96 0.5 S 2 7 1 4 1019.9 1019.6 0.0
20/11:30pm 21.2 23.9 20.7 97 0.3 SW 7 11 4 6 1019.8 1019.5 0.0
20/11:18pm 21.3 24.2 20.6 96 0.5 SW 6 7 3 4 1020.0 1019.7 0.0
20/11:00pm 21.4 24.4 20.0 92 0.9 SW 4 9 2 5 1020.3 1020.0 0.0
20/10:51pm 21.6 24.0 19.7 89 1.2 SW 6 9 3 5 1020.4 1020.1 0.0
20/10:30pm 22.7 25.5 18.9 79 2.4 W 2 7 1 4 1020.6 1020.3 0.0
20/10:00pm 22.8 25.6 18.8 78 2.5 ENE 2 9 1 5 1020.1 1019.8 0.0
20/09:39pm 22.8 23.4 18.6 77 2.7 ENE 13 17 7 9 1020.0 1019.7 0.0
20/09:30pm 23.0 24.2 18.3 75 3.0 ESE 9 19 5 10 1019.9 1019.6 0.0
20/09:00pm 23.5 24.8 18.4 73 3.2 E 9 15 5 8 1019.4 1019.1 0.0
20/08:30pm 23.7 23.8 18.4 72 3.3 ENE 15 20 8 11 1019.2 1018.9 0.0
20/08:00pm 23.8 24.2 18.2 71 3.5 ENE 13 20 7 11 1018.4 1018.0 0.0
20/07:30pm 24.0 24.0 18.2 70 3.7 ENE 15 20 8 11 1018.2 1017.8 0.0
20/07:00pm 24.3 24.9 18.5 70 3.7 ENE 13 19 7 10 1017.7 1017.3 0.0
20/06:30pm 24.4 24.2 18.6 70 3.7 ENE 17 20 9 11 1017.8 1017.4 0.0
20/06:00pm 24.9 25.5 18.6 68 4.0 ENE 13 20 7 11 1017.4 1017.0 0.0
20/05:30pm 25.6 26.0 19.0 67 4.2 ENE 15 22 8 12 1017.1 1016.7 0.0
20/05:00pm 26.3 26.3 18.9 63 4.7 ENE 17 24 9 13 1017.2 1016.8 0.0
20/04:30pm 27.0 26.3 18.3 59 5.5 NE 19 26 10 14 1017.4 1017.0 0.0
20/04:00pm 27.1 27.7 18.7 60 5.4 ENE 13 20 7 11 1017.8 1017.4 0.0
20/03:30pm 26.8 26.4 18.1 59 5.5 NE 17 26 9 14 1018.1 1017.7 0.0
20/03:00pm 26.3 26.3 18.2 61 5.1 NNE 15 20 8 11 1018.5 1018.1 0.0
20/02:30pm 26.5 27.0 18.4 61 5.2 NNE 13 20 7 11 1019.0 1018.7 0.0
20/02:00pm 25.8 26.2 18.2 63 4.8 N 13 20 7 11 1019.5 1019.2 0.0
20/01:30pm 24.5 25.4 17.5 65 4.4 N 9 13 5 7 1020.0 1019.7 0.0
20/01:00pm 24.0 25.5 18.0 69 3.8 NNE 7 13 4 7 1020.5 1020.2 0.0
20/12:30pm 23.2 24.3 17.2 69 3.7 N 7 11 4 6 1020.9 1020.6 0.0
20/12:23pm 23.6 25.6 17.8 70 3.6 NNW 4 11 2 6 1021.0 1020.7 0.0
20/12:00pm 22.7 24.0 17.2 71 3.4 WNW 6 7 3 4 1021.2 1020.9 0.0
20/11:30am 22.5 24.2 17.2 72 3.3 WSW 4 9 2 5 1021.4 1021.1 0.0
20/11:00am 22.1 23.2 17.0 73 3.1 WNW 7 11 4 6 1021.6 1021.3 0.0
20/10:30am 21.7 23.1 17.3 76 2.7 W 6 9 3 5 1022.0 1021.7 0.0
20/10:00am 21.3 22.4 17.1 77 2.6 W 7 9 4 5 1022.0 1021.7 0.0
20/09:30am 21.0 22.1 17.2 79 2.3 W 7 11 4 6 1021.9 1021.6 0.0
20/09:00am 20.8 22.1 17.6 82 2.0 WNW 7 11 4 6 1021.8 1021.5 0.0
20/08:46am 20.7 21.7 17.7 83 1.9 W 9 11 5 6 1021.9 1021.6 0.0
20/08:30am 20.6 21.5 17.6 83 1.9 W 9 11 5 6 1021.7 1021.4 0.0
20/08:00am 20.5 22.6 17.3 82 2.0 SW 2 9 1 5 1021.4 1021.1 0.0
20/07:37am 20.3 22.1 17.5 84 1.7 S 4 7 2 4 1021.2 1020.9 0.0
20/07:30am 20.1 21.6 17.5 85 1.6 SSW 6 11 3 6 1021.0 1020.7 0.0
20/07:00am 19.9 21.3 17.7 87 1.4 SSW 7 11 4 6 1021.0 1020.7 0.0
20/06:55am 19.9 21.2 17.5 86 1.5 SSW 7 11 4 6 1021.0 1020.7 0.0
20/06:30am 19.8 20.7 17.6 87 1.4 SSW 9 11 5 6 1020.8 1020.5 0.0
20/06:00am 19.8 21.1 17.2 85 1.6 SSW 6 9 3 5 1020.5 1020.2 0.0
20/05:30am 20.1 22.2 17.1 83 1.8 W 2 7 1 4 1020.3 1020.0 0.0
20/05:00am 20.1 21.3 17.3 84 1.7 W 7 7 4 4 1020.1 1019.8 0.0
20/04:30am 20.1 21.5 17.3 84 1.7 WSW 6 7 3 4 1020.0 1019.7 0.0
20/04:00am 20.1 21.5 17.7 86 1.5 WSW 7 9 4 5 1020.1 1019.8 0.0
20/03:59am 20.1 21.4 17.5 85 1.6 WSW 7 9 4 5 1020.1 1019.8 0.0
20/03:40am 20.1 21.4 17.5 85 1.6 WSW 7 9 4 5 1020.1 1019.8 0.0
20/03:30am 20.0 21.4 17.4 85 1.6 WSW 6 7 3 4 1020.1 1019.8 0.0
20/03:00am 20.1 21.3 17.3 84 1.7 WSW 7 9 4 5 1020.3 1020.0 0.0
20/02:30am 20.2 21.8 17.0 82 2.0 SW 4 7 2 4 1020.7 1020.4 0.0
20/02:00am 20.3 21.2 16.7 80 2.2 SSW 7 9 4 5 1021.0 1020.7 0.0
20/01:30am 20.4 22.0 16.8 80 2.2 S 4 9 2 5 1021.4 1021.1 0.0
20/01:18am 20.4 22.0 16.8 80 2.2 S 4 9 2 5 1021.6 1021.3 0.0
20/01:00am 20.4 21.4 16.8 80 2.2 SSE 7 9 4 5 1021.8 1021.5 0.0
20/12:30am 20.4 21.7 17.0 81 2.1 SE 6 9 3 5 1022.1 1021.8 0.0
20/12:00am 20.4 21.4 16.8 80 2.2 SE 7 13 4 7 1022.1 1021.8 0.0
 
Date/Time
EDT
Temp
°C
App
Temp
°C
Dew
Point
°C
Rel
Hum
%
Delta-T
°C
Wind Press
QNH
hPa
Press
MSL
hPa
Rain since
9am
mm
Dir  Spd
km/h
Gust
km/h
Spd
kts
Gust
kts
19/11:30pm 20.6 21.7 17.2 81 2.1 SSW 7 13 4 7 1022.1 1021.8 0.0
19/11:23pm 20.5 21.6 17.1 81 2.1 SSW 7 9 4 5 1022.1 1021.8 0.0
19/11:02pm 20.4 21.1 17.0 81 2.1 S 9 13 5 7 1022.1 1021.8 0.0
19/11:00pm 20.4 21.1 17.0 81 2.1 S 9 13 5 7 1022.1 1021.8 0.0
19/10:37pm 20.4 21.1 17.0 81 2.1 SSE 9 11 5 6 1022.1 1021.8 0.0
19/10:30pm 20.4 20.7 17.0 81 2.1 SSE 11 15 6 8 1022.1 1021.8 0.0
19/10:00pm 20.5 20.8 16.9 80 2.2 SE 11 17 6 9 1021.8 1021.5 0.0
19/09:30pm 20.5 20.8 17.1 81 2.1 SE 11 17 6 9 1021.7 1021.4 0.0
19/09:15pm 21.0 20.9 17.0 78 2.4 SE 13 22 7 12 1021.5 1021.2 0.0
19/09:00pm 21.1 21.5 17.3 79 2.3 SE 11 17 6 9 1021.2 1020.9 0.0
19/08:30pm 21.1 21.7 17.7 81 2.1 ESE 11 17 6 9 1020.6 1020.3 0.0
19/08:11pm 21.4 22.2 17.4 78 2.5 SSE 9 17 5 9 1020.3 1020.0 0.0
19/08:00pm 21.4 21.5 17.4 78 2.5 SE 13 19 7 10 1020.1 1019.8 0.0
19/07:30pm 21.7 21.8 17.5 77 2.6 SSE 13 20 7 11 1019.6 1019.3 0.0
19/07:00pm 22.0 21.7 17.4 75 2.8 SSE 15 22 8 12 1019.2 1018.9 0.0
19/06:30pm 22.5 22.6 17.4 73 3.2 SSE 13 19 7 10 1018.9 1018.5 0.0
19/06:00pm 23.0 22.8 17.5 71 3.4 SE 15 24 8 13 1018.6 1018.2 0.0
19/05:30pm 23.6 23.2 17.1 67 4.0 SE 15 20 8 11 1018.3 1017.9 0.0
19/05:00pm 23.7 23.2 17.0 66 4.1 SE 15 24 8 13 1018.2 1017.8 0.0
19/04:30pm 24.3 23.5 17.1 64 4.5 SSE 17 22 9 12 1018.3 1017.9 0.0
19/04:00pm 24.5 23.2 16.7 61 4.8 SSE 19 24 10 13 1018.2 1017.8 0.0
19/03:30pm 25.3 24.5 17.0 60 5.2 SE 17 24 9 13 1018.0 1017.6 0.0
19/03:00pm 25.9 25.5 18.1 62 4.9 SE 17 22 9 12 1018.1 1017.7 0.0
19/02:30pm 25.3 24.8 17.7 62 4.8 ESE 17 24 9 13 1018.0 1017.6 0.0
19/02:00pm 25.0 24.4 17.5 63 4.7 SSE 17 22 9 12 1018.1 1017.7 0.0
19/01:30pm 25.3 24.5 18.0 64 4.6 SSE 19 26 10 14 1018.0 1017.6 0.0
19/01:00pm 25.6 25.3 18.3 64 4.6 SE 17 28 9 15 1018.0 1017.6 0.0
19/12:30pm 25.6 25.0 18.8 66 4.3 SSE 20 28 11 15 1017.8 1017.4 0.0
19/12:00pm 25.7 25.1 18.9 66 4.4 SE 20 35 11 19 1017.5 1017.1 0.0
19/11:30am 28.9 30.8 19.8 58 6.0 NE 9 15 5 8 1016.9 1016.5 0.0
19/11:00am 29.0 30.2 19.9 58 6.0 ENE 13 20 7 11 1016.4 1016.0 0.0
19/10:30am 28.9 30.4 19.8 58 6.0 E 11 15 6 8 1016.2 1015.8 0.0
19/10:17am 29.0 31.0 19.9 58 6.0 E 9 13 5 7 1016.2 1015.8 0.0
19/10:00am 28.0 30.5 19.0 58 5.8 NNE 4 9 2 5 1015.9 1015.5 0.0
19/09:58am 28.2 31.3 19.4 59 5.7 NNE 2 7 1 4 1015.9 1015.5 0.0
19/09:30am 26.7 28.0 19.3 64 4.8 N 11 15 6 8 1015.1 1014.8 0.0
19/09:00am 25.9 28.0 19.3 67 4.3 NNW 7 13 4 7 1015.2 1014.9 0.0
19/08:30am 24.4 26.0 19.2 73 3.3 NNW 9 11 5 6 1014.6 1014.3 0.0
19/08:00am 24.1 26.3 19.6 76 2.9 NNW 7 11 4 6 1014.1 1013.8 0.0
19/07:30am 23.7 27.3 19.8 79 2.5 CALM 0 6 0 3 1013.5 1013.2 0.0
19/07:00am 23.2 25.5 19.4 79 2.4 SSE 6 13 3 7 1013.7 1013.4 0.0
19/06:30am 23.2 26.7 19.6 80 2.3 CALM 0 0 0 0 1013.3 1013.0 0.0
19/06:00am 22.9 25.3 18.9 78 2.5 SE 4 7 2 4 1013.6 1013.3 0.0
19/05:30am 23.3 25.4 19.0 77 2.7 S 6 9 3 5 1013.3 1013.0 0.0
19/05:00am 23.6 26.0 18.9 75 3.0 SSW 4 9 2 5 1012.8 1012.5 0.0
19/04:30am 23.9 25.4 18.8 73 3.2 S 9 13 5 7 1012.7 1012.4 0.0
19/04:00am 24.0 25.2 18.2 70 3.7 SSE 9 13 5 7 1012.5 1012.2 0.0
19/03:30am 24.5 25.8 17.5 65 4.4 ESE 7 11 4 6 1012.2 1011.9 0.0
19/03:00am 25.0 26.3 17.5 63 4.7 E 7 13 4 7 1012.4 1012.1 0.0
19/02:30am 25.1 26.4 17.1 61 5.0 SE 6 7 3 4 1011.8 1011.5 0.0
19/02:00am 25.8 27.0 17.4 59 5.3 SW 7 9 4 5 1011.8 1011.5 0.0
19/01:30am 25.6 27.2 17.8 62 4.9 SSW 6 9 3 5 1011.7 1011.4 0.0
19/01:00am 26.1 27.4 18.5 63 4.8 SSE 9 13 5 7 1011.7 1011.4 0.0
19/12:30am 26.5 27.9 18.6 62 5.1 SE 9 11 5 6 1011.9 1011.6 0.0
19/12:00am 27.4 27.5 18.4 58 5.8 SSE 15 22 8 12 1011.6 1011.3 0.0
 
Date/Time
EDT
Temp
°C
App
Temp
°C
Dew
Point
°C
Rel
Hum
%
Delta-T
°C
Wind Press
QNH
hPa
Press
MSL
hPa
Rain since
9am
mm
Dir  Spd
km/h
Gust
km/h
Spd
kts
Gust
kts
18/11:30pm 28.3 27.4 17.8 53 6.7 S 19 26 10 14 1011.3 1011.0 0.0
18/11:00pm 30.0 29.9 18.8 51 7.3 SSE 17 28 9 15 1010.8 1010.5 0.0
18/10:30pm 29.4 31.8 19.7 56 6.4 SSW 6 9 3 5 1010.2 1009.9 0.0
18/10:00pm 30.2 32.4 19.3 52 7.1 ESE 6 11 3 6 1009.6 1009.3 0.0
18/09:30pm 30.3 30.2 20.0 54 6.8 S 20 35 11 19 1009.2 1008.9 0.0
18/09:00pm 30.0 32.4 19.7 54 6.8 ESE 6 9 3 5 1007.8 1007.5 0.0
18/08:30pm 31.0 32.9 19.7 51 7.4 ENE 9 15 5 8 1007.2 1006.9 0.0
18/08:00pm 32.1 34.3 19.7 48 8.2 ENE 7 11 4 6 1006.9 1006.5 0.0
18/07:30pm 33.8 37.0 19.8 43 9.3 E 2 7 1 4 1006.6 1006.2 0.0
18/07:00pm 34.9 35.2 19.7 41 10.1 ENE 17 24 9 13 1006.1 1005.7 0.0
18/06:30pm 36.2 36.1 19.6 37 11.1 ENE 19 24 10 13 1005.5 1005.1 0.0
18/06:00pm 37.2 36.9 19.6 35 11.8 ENE 20 28 11 15 1005.4 1005.0 0.0
18/05:30pm 39.4 38.9 18.6 29 13.8 NE 19 26 10 14 1005.5 1005.1 0.0
18/05:00pm 39.0 38.9 18.8 30 13.5 NNE 17 26 9 14 1006.0 1005.6 0.0
18/04:30pm 39.0 39.1 18.3 30 13.7 NNE 15 20 8 11 1006.4 1006.0 0.0
18/04:00pm 38.5 38.0 17.8 29 13.6 NE 17 24 9 13 1007.0 1006.6 0.0
18/03:30pm 37.9 37.6 17.3 29 13.4 NE 15 22 8 12 1007.6 1007.3 0.0
18/03:00pm 37.7 38.0 17.1 29 13.4 N 11 19 6 10 1008.0 1007.7 0.0
18/02:30pm 37.0 38.3 17.1 31 12.9 N 6 19 3 10 1008.5 1008.2 0.0
18/02:00pm 36.2 37.4 17.4 33 12.2 NW 7 15 4 8 1009.1 1008.8 0.0
18/01:30pm 35.0 35.2 16.8 34 11.7 NNE 11 19 6 10 1009.7 1009.4 0.0
18/01:00pm 33.7 35.7 17.8 38 10.3 NNW 4 15 2 8 1010.3 1010.0 0.0
18/12:30pm 32.3 34.7 18.8 44 8.8 WNW 4 13 2 7 1011.0 1010.7 0.0
18/12:00pm 31.0 32.8 18.7 48 8.0 NNW 7 15 4 8 1011.5 1011.2 0.0
18/11:30am 29.9 31.7 18.7 51 7.2 NNW 7 15 4 8 1012.1 1011.8 0.0
18/11:00am 28.8 30.4 19.1 55 6.3 W 9 15 5 8 1012.8 1012.5 0.0
18/10:30am 27.8 29.6 18.8 58 5.8 WNW 7 13 4 7 1013.2 1012.9 0.0
18/10:00am 27.7 29.5 18.7 58 5.8 ENE 7 15 4 8 1013.6 1013.3 0.0
18/09:30am 26.8 28.1 18.4 60 5.4 ENE 9 15 5 8 1014.3 1014.0 0.0
18/09:00am 25.8 27.3 19.0 66 4.4 NE 9 13 5 7 1014.6 1014.3 0.0
18/08:30am 25.5 27.2 19.4 69 3.9 ENE 9 15 5 8 1015.0 1014.7 0.0
18/08:00am 24.9 27.5 19.3 71 3.6 ESE 4 7 2 4 1015.0 1014.7 0.0
18/07:30am 24.2 26.7 19.9 77 2.8 S 6 7 3 4 1015.1 1014.8 0.0
18/07:00am 23.2 26.5 20.0 82 2.1 N 2 7 1 4 1015.1 1014.8 0.0
18/06:30am 22.6 26.1 19.6 83 1.9 CALM 0 0 0 0 1015.2 1014.9 0.0
18/06:00am 22.8 26.2 19.4 81 2.2 CALM 0 0 0 0 1014.9 1014.6 0.0
18/05:30am 23.4 26.1 19.5 79 2.5 SSW 4 7 2 4 1014.6 1014.3 0.0
18/05:00am 23.6 25.9 19.5 78 2.6 SW 6 7 3 4 1014.2 1013.9 0.0
18/04:30am 23.7 26.0 19.4 77 2.8 S 6 9 3 5 1014.0 1013.7 0.0

Other Formats:

Comma delimited format used in spreadsheet applications
http://www.bom.gov.au/fwo/IDN60801/IDN60801.94755.axf

JavaScript Object Notation format (JSON) in row-major order
http://www.bom.gov.au/fwo/IDN60801/IDN60801.94755.json